createdAt,value
2023-01-19T00:02:26.503Z,3.13
2023-01-19T00:07:30.407Z,3.35
2023-01-19T00:22:36.964Z,2.20
2023-01-19T00:27:39.077Z,2.50
2023-01-19T00:32:41.168Z,2.30
2023-01-19T00:37:46.414Z,3.47
2023-01-19T00:42:48.830Z,2.63
2023-01-19T00:47:57.426Z,2.33
2023-01-19T00:53:01.578Z,3.20
2023-01-19T00:58:04.163Z,2.50
2023-01-19T01:03:06.406Z,3.47
2023-01-19T01:08:08.526Z,3.00
2023-01-19T01:13:20.334Z,2.38
2023-01-19T01:18:26.512Z,2.80
2023-01-19T01:23:28.620Z,2.63
2023-01-19T01:28:31.857Z,3.80
2023-01-19T01:33:39.956Z,2.85
2023-01-19T01:38:43.823Z,3.85
2023-01-19T01:43:46.015Z,2.50
2023-01-19T01:49:15.971Z,2.35
2023-01-19T01:54:23.441Z,1.98
2023-01-19T01:59:29.888Z,3.05
2023-01-19T02:04:32.356Z,2.92
2023-01-19T02:09:55.972Z,2.85
2023-01-19T02:14:58.098Z,2.60
2023-01-19T02:20:00.229Z,3.40
2023-01-19T02:25:06.321Z,2.20
2023-01-19T02:30:10.267Z,2.70
2023-01-19T02:35:13.306Z,3.00
2023-01-19T02:40:20.424Z,3.20
2023-01-19T02:45:23.726Z,4.80
2023-01-19T02:50:34.552Z,2.55
2023-01-19T02:55:38.172Z,3.20
2023-01-19T03:00:58.975Z,3.53
2023-01-19T03:06:12.281Z,1.83
2023-01-19T03:11:15.162Z,2.03
2023-01-19T03:16:17.376Z,2.35
2023-01-19T03:21:22.254Z,2.53
2023-01-19T03:26:30.064Z,2.17
2023-01-19T03:31:34.442Z,1.73
2023-01-19T03:36:43.917Z,2.08
2023-01-19T03:41:49.510Z,2.03
2023-01-19T03:46:52.375Z,2.53
2023-01-19T03:51:59.192Z,3.00
2023-01-19T03:57:01.330Z,3.53
2023-01-19T04:02:03.633Z,2.90
2023-01-19T04:07:05.907Z,2.65
2023-01-19T04:12:08.333Z,3.03
2023-01-19T04:17:10.759Z,2.40
2023-01-19T04:22:12.944Z,3.67
2023-01-19T04:27:16.627Z,3.97
2023-01-19T04:32:19.130Z,4.30
2023-01-19T04:37:21.316Z,4.03
2023-01-19T04:42:24.132Z,5.47
2023-01-19T04:47:26.484Z,4.65
2023-01-19T04:52:36.094Z,5.78
2023-01-19T04:57:38.310Z,5.40
2023-01-19T05:02:42.894Z,5.65
2023-01-19T05:07:45.642Z,5.55
2023-01-19T05:12:47.896Z,4.45
2023-01-19T05:17:50.130Z,4.78
2023-01-19T05:22:53.563Z,4.07
2023-01-19T05:27:55.639Z,4.80
2023-01-19T05:32:57.791Z,4.65
2023-01-19T05:37:59.985Z,5.25
2023-01-19T05:43:05.516Z,5.20
2023-01-19T05:48:09.524Z,4.75
2023-01-19T05:53:12.414Z,4.72
2023-01-19T05:58:14.566Z,4.72
2023-01-19T06:03:16.812Z,4.07
2023-01-19T06:08:19.431Z,5.72
2023-01-19T06:13:21.875Z,6.38
2023-01-19T06:18:24.179Z,5.13
2023-01-19T06:23:27.588Z,4.88
2023-01-19T06:28:30.065Z,4.93
2023-01-19T06:33:32.326Z,5.75
2023-01-19T06:38:34.436Z,5.38
2023-01-19T06:43:36.811Z,4.72
2023-01-19T06:48:38.946Z,5.38
2023-01-19T06:53:41.058Z,4.82
2023-01-19T06:58:43.559Z,6.47
2023-01-19T07:03:46.968Z,6.57
2023-01-19T07:08:49.197Z,5.82
2023-01-19T07:13:54.906Z,6.28
2023-01-19T07:18:57.019Z,5.72
2023-01-19T07:23:59.163Z,5.82
2023-01-19T07:29:01.354Z,4.57
2023-01-19T07:34:03.462Z,4.65
2023-01-19T07:39:05.543Z,4.20
2023-01-19T07:44:08.922Z,5.18
2023-01-19T07:49:11.789Z,5.65
2023-01-19T07:54:13.919Z,6.32
2023-01-19T07:59:16.084Z,5.03
2023-01-19T08:04:19.321Z,4.40
2023-01-19T08:09:21.755Z,4.50
2023-01-19T08:14:23.877Z,4.20
2023-01-19T08:19:26.071Z,4.47
2023-01-19T08:24:29.337Z,3.15
2023-01-19T08:29:32.168Z,3.30
2023-01-19T08:34:34.257Z,3.08
2023-01-19T08:39:36.409Z,4.00
2023-01-19T08:44:46.644Z,5.95
2023-01-19T08:49:55.299Z,3.35
2023-01-19T08:54:57.440Z,2.92
2023-01-19T08:59:59.575Z,2.95
2023-01-19T09:05:01.715Z,3.58
2023-01-19T09:10:05.365Z,3.65
2023-01-19T09:15:08.331Z,2.63
2023-01-19T09:20:11.072Z,4.03
2023-01-19T09:25:13.356Z,4.32
2023-01-19T09:30:17.431Z,3.85
2023-01-19T09:40:22.021Z,2.33
2023-01-19T09:45:46.247Z,3.55
2023-01-19T09:50:49.577Z,2.50
2023-01-19T09:55:51.717Z,3.63
2023-01-19T10:01:04.891Z,3.00
2023-01-19T10:06:12.077Z,2.35
2023-01-19T10:11:42.015Z,3.20
2023-01-19T10:17:15.032Z,2.33
2023-01-19T10:22:24.697Z,2.75
2023-01-19T10:27:30.585Z,4.10
2023-01-19T10:32:37.148Z,3.20
2023-01-19T10:37:44.908Z,2.70
2023-01-19T10:42:47.182Z,2.60
2023-01-19T10:47:50.284Z,2.10
2023-01-19T10:52:57.718Z,2.92
2023-01-19T10:58:00.099Z,3.10
2023-01-19T11:03:03.505Z,2.78
2023-01-19T11:08:31.289Z,3.05
2023-01-19T11:13:33.482Z,2.50
2023-01-19T11:18:38.393Z,3.30
2023-01-19T11:23:46.379Z,3.08
2023-01-19T11:28:51.554Z,2.22
2023-01-19T11:33:56.776Z,2.00
2023-01-19T11:39:24.532Z,2.53
2023-01-19T11:44:32.845Z,2.28
2023-01-19T11:49:49.817Z,2.60
2023-01-19T11:55:01.771Z,3.28
2023-01-19T12:00:17.719Z,3.00
2023-01-19T12:05:20.907Z,2.80
2023-01-19T12:10:29.554Z,2.40
2023-01-19T12:15:43.290Z,2.42
2023-01-19T12:20:50.347Z,2.63
2023-01-19T12:26:25.054Z,2.22
2023-01-19T12:31:27.628Z,2.97
2023-01-19T12:36:29.912Z,2.60
2023-01-19T12:41:35.933Z,2.63
2023-01-19T12:46:47.410Z,3.17
2023-01-19T12:51:52.636Z,2.30
2023-01-19T12:57:01.656Z,2.28
2023-01-19T13:02:18.832Z,3.50
2023-01-19T13:07:21.048Z,1.95
2023-01-19T13:12:25.991Z,2.67
2023-01-19T13:17:50.096Z,3.20
2023-01-19T13:23:13.197Z,2.65
2023-01-19T13:28:18.510Z,3.40
2023-01-19T13:33:24.786Z,3.92
2023-01-19T13:38:28.276Z,3.42
2023-01-19T13:43:38.041Z,3.10
2023-01-19T13:48:51.429Z,4.45
2023-01-19T13:53:55.328Z,2.70
2023-01-19T13:59:12.002Z,2.40
2023-01-19T14:04:34.075Z,2.83
2023-01-19T14:09:36.278Z,4.15
2023-01-19T14:14:39.002Z,2.95
2023-01-19T14:19:51.379Z,2.53
2023-01-19T14:24:53.534Z,3.00
2023-01-19T14:30:21.737Z,3.20
2023-01-19T14:40:27.351Z,2.42
2023-01-19T14:45:35.463Z,3.53
2023-01-19T14:50:41.565Z,3.25
2023-01-19T14:56:07.082Z,2.90
2023-01-19T15:01:09.530Z,2.00
2023-01-19T15:06:17.808Z,3.90
2023-01-19T15:11:23.564Z,3.42
2023-01-19T15:16:28.043Z,3.40
2023-01-19T15:21:30.306Z,3.50
2023-01-19T15:26:32.507Z,4.90
2023-01-19T15:31:36.088Z,3.05
2023-01-19T15:36:38.254Z,2.83
2023-01-19T15:41:40.980Z,2.90
2023-01-19T15:46:43.150Z,2.75
2023-01-19T15:51:45.842Z,3.45
2023-01-19T15:56:48.229Z,3.60
2023-01-19T16:01:51.097Z,4.07
2023-01-19T16:06:53.414Z,4.18
2023-01-19T16:11:57.320Z,3.03
2023-01-19T16:17:02.172Z,4.15
2023-01-19T16:22:05.788Z,4.05
2023-01-19T16:27:09.091Z,4.32
2023-01-19T16:32:11.337Z,4.07
2023-01-19T16:37:13.615Z,3.25
2023-01-19T16:42:16.770Z,3.22
2023-01-19T16:47:18.938Z,2.95
2023-01-19T16:52:21.102Z,3.65
2023-01-19T16:57:23.393Z,3.22
2023-01-19T17:02:25.522Z,4.00
2023-01-19T17:07:28.515Z,3.33
2023-01-19T17:12:32.337Z,3.60
2023-01-19T17:17:36.496Z,3.80
2023-01-19T17:27:40.969Z,3.40
2023-01-19T17:32:43.248Z,3.28
2023-01-19T17:37:45.454Z,3.42
2023-01-19T17:42:48.151Z,3.85
2023-01-19T17:47:50.776Z,2.92
2023-01-19T17:52:53.048Z,3.35
2023-01-19T17:57:55.236Z,2.72
2023-01-19T18:02:57.470Z,3.30
2023-01-19T18:08:00.648Z,3.10
2023-01-19T18:13:02.823Z,3.00
2023-01-19T18:18:05.050Z,2.88
2023-01-19T18:23:07.646Z,3.75
2023-01-19T18:28:10.093Z,2.10
2023-01-19T18:33:12.227Z,3.63
2023-01-19T18:38:14.887Z,2.42
2023-01-19T18:43:16.984Z,2.38
2023-01-19T18:48:19.111Z,2.85
2023-01-19T18:53:22.091Z,2.63
2023-01-19T18:58:25.269Z,2.33
2023-01-19T19:03:27.857Z,2.60
2023-01-19T19:08:30.255Z,2.55
2023-01-19T19:13:32.597Z,2.30
2023-01-19T19:18:36.355Z,2.83
2023-01-19T19:23:38.900Z,2.25
2023-01-19T19:28:41.666Z,2.40
2023-01-19T19:33:44.405Z,3.17
2023-01-19T19:38:47.864Z,1.77
2023-01-19T19:43:50.696Z,2.20
2023-01-19T19:48:53.901Z,2.22
2023-01-19T19:54:00.589Z,2.58
2023-01-19T19:59:02.720Z,2.33
2023-01-19T20:04:10.916Z,1.85
2023-01-19T20:09:14.466Z,1.90
2023-01-19T20:14:16.970Z,2.10
2023-01-19T20:19:19.400Z,1.85
2023-01-19T20:24:21.605Z,1.40
2023-01-19T20:29:23.930Z,3.25
2023-01-19T20:34:32.847Z,2.08
2023-01-19T20:39:37.068Z,1.40
2023-01-19T20:49:42.306Z,1.33
2023-01-19T20:54:44.508Z,2.00
2023-01-19T20:59:46.663Z,1.65
2023-01-19T21:04:49.035Z,1.65
2023-01-19T21:09:51.273Z,1.10
2023-01-19T21:14:53.575Z,1.52
2023-01-19T21:19:55.692Z,0.98
2023-01-19T21:24:57.992Z,1.05
2023-01-19T21:30:02.457Z,1.52
2023-01-19T21:35:04.970Z,1.35
2023-01-19T21:40:08.056Z,1.58
2023-01-19T21:45:10.421Z,1.65
2023-01-19T21:50:12.676Z,1.40
2023-01-19T21:55:15.306Z,1.20
2023-01-19T22:00:18.280Z,1.20
2023-01-19T22:05:20.433Z,1.30
2023-01-19T22:10:22.576Z,1.15
2023-01-19T22:15:24.755Z,1.40
2023-01-19T22:20:27.010Z,1.55
2023-01-19T22:25:29.311Z,1.55
2023-01-19T22:30:31.611Z,1.42
2023-01-19T22:35:33.732Z,1.23
2023-01-19T22:40:35.875Z,1.30
2023-01-19T22:45:41.682Z,1.10
2023-01-19T22:50:43.849Z,1.15
2023-01-19T22:55:45.985Z,1.08
2023-01-19T23:00:48.310Z,1.27
2023-01-19T23:06:11.254Z,1.60
2023-01-19T23:11:16.269Z,1.20
2023-01-19T23:16:19.014Z,1.33
2023-01-19T23:21:23.171Z,1.35
2023-01-19T23:26:26.333Z,1.70
2023-01-19T23:31:33.962Z,1.40
2023-01-19T23:36:38.063Z,1.80
2023-01-19T23:41:40.319Z,1.70
2023-01-19T23:46:44.135Z,1.67
2023-01-19T23:51:46.380Z,1.52
2023-01-19T23:56:48.651Z,1.30
